createdAt,value
2018-04-08T00:00:23.506Z,9.01
2018-04-08T00:01:23.236Z,8.85
2018-04-08T00:02:23.482Z,8.82
2018-04-08T00:03:23.509Z,8.8
2018-04-08T00:04:22.941Z,8.87
2018-04-08T00:05:23.189Z,8.85
2018-04-08T00:06:22.920Z,8.83
2018-04-08T00:07:23.176Z,8.76
2018-04-08T00:08:23.154Z,8.82
2018-04-08T00:09:22.888Z,8.86
2018-04-08T00:10:23.390Z,8.79
2018-04-08T00:11:23.123Z,8.83
2018-04-08T00:12:23.371Z,8.74
2018-04-08T00:13:23.362Z,8.72
2018-04-08T00:14:23.349Z,8.76
2018-04-08T00:15:23.341Z,8.74
2018-04-08T00:16:22.811Z,8.76
2018-04-08T00:17:22.796Z,8.76
2018-04-08T00:18:23.303Z,8.72
2018-04-08T00:19:23.292Z,8.74
2018-04-08T00:20:22.765Z,8.8
2018-04-08T00:21:23.271Z,8.72
2018-04-08T00:22:23.266Z,8.72
2018-04-08T00:23:23.245Z,8.74
2018-04-08T00:24:22.978Z,8.72
2018-04-08T00:25:22.968Z,8.72
2018-04-08T00:26:22.698Z,8.72
2018-04-08T00:27:22.944Z,8.61
2018-04-08T00:28:22.676Z,8.6
2018-04-08T00:29:22.669Z,8.62
2018-04-08T00:30:22.920Z,8.6
2018-04-08T00:31:23.161Z,8.67
2018-04-08T00:32:22.889Z,8.62
2018-04-08T00:33:22.879Z,8.58
2018-04-08T00:34:23.127Z,8.62
2018-04-08T00:35:23.112Z,8.54
2018-04-08T00:36:23.101Z,8.6
2018-04-08T00:37:22.574Z,8.54
2018-04-08T00:38:23.081Z,8.53
2018-04-08T00:39:23.072Z,8.47
2018-04-08T00:40:23.056Z,8.47
2018-04-08T00:41:23.051Z,8.53
2018-04-08T00:42:23.041Z,8.47
2018-04-08T00:43:22.765Z,8.53
2018-04-08T00:44:22.765Z,8.49
2018-04-08T00:45:23.002Z,8.57
2018-04-08T00:46:22.730Z,8.46
2018-04-08T00:47:22.979Z,8.5
2018-04-08T00:48:22.975Z,8.53
2018-04-08T00:49:22.960Z,8.42
2018-04-08T00:50:22.884Z,8.42
2018-04-08T00:51:22.736Z,8.36
2018-04-08T00:52:22.661Z,8.31
2018-04-08T00:53:22.913Z,8.42
2018-04-08T00:54:22.639Z,8.28
2018-04-08T00:55:22.634Z,8.35
2018-04-08T00:56:22.617Z,8.36
2018-04-08T00:57:22.348Z,8.28
2018-04-08T00:58:22.852Z,8.29
2018-04-08T00:59:22.623Z,8.28
2018-04-08T01:00:22.314Z,8.35
2018-04-08T01:01:22.562Z,8.32
2018-04-08T01:02:22.549Z,8.28
2018-04-08T01:03:22.535Z,8.32
2018-04-08T01:04:22.537Z,8.29
2018-04-08T01:05:22.678Z,8.25
2018-04-08T01:06:22.766Z,8.32
2018-04-08T01:07:22.757Z,8.28
2018-04-08T01:08:22.224Z,8.35
2018-04-08T01:09:22.731Z,8.21
2018-04-08T01:10:22.719Z,8.21
2018-04-08T01:11:22.705Z,8.26
2018-04-08T01:12:22.694Z,8.22
2018-04-08T01:13:22.421Z,8.24
2018-04-08T01:14:22.672Z,8.21
2018-04-08T01:15:22.398Z,8.19
2018-04-08T01:16:22.389Z,8.14
2018-04-08T01:17:22.634Z,8.17
2018-04-08T01:18:22.623Z,8.19
2018-04-08T01:19:22.615Z,8.26
2018-04-08T01:20:22.756Z,8.21
2018-04-08T01:21:22.331Z,8.16
2018-04-08T01:22:22.582Z,8.14
2018-04-08T01:23:22.562Z,8.11
2018-04-08T01:24:22.299Z,8.17
2018-04-08T01:25:22.543Z,8.21
2018-04-08T01:26:22.278Z,8.11
2018-04-08T01:27:22.519Z,8.14
2018-04-08T01:28:22.507Z,8.09
2018-04-08T01:29:22.241Z,8.17
2018-04-08T01:30:22.227Z,8.1
2018-04-08T01:31:22.214Z,8.13
2018-04-08T01:32:22.456Z,8.11
2018-04-08T01:33:22.188Z,8.09
2018-04-08T01:34:22.437Z,8.11
2018-04-08T01:35:22.422Z,8.06
2018-04-08T01:36:22.415Z,8.09
2018-04-08T01:37:22.403Z,8.09
2018-04-08T01:38:21.873Z,8.04
2018-04-08T01:39:22.378Z,8.03
2018-04-08T01:40:22.364Z,7.95
2018-04-08T01:41:22.350Z,7.99
2018-04-08T01:42:22.343Z,7.99
2018-04-08T01:43:22.337Z,7.96
2018-04-08T01:44:22.061Z,7.93
2018-04-08T01:45:22.306Z,7.98
2018-04-08T01:46:22.299Z,7.93
2018-04-08T01:47:22.286Z,7.89
2018-04-08T01:48:22.016Z,7.98
2018-04-08T01:49:22.264Z,7.96
2018-04-08T01:50:22.249Z,7.91
2018-04-08T01:51:22.238Z,7.95
2018-04-08T01:52:22.228Z,7.98
2018-04-08T01:53:21.956Z,7.96
2018-04-08T01:54:21.944Z,7.93
2018-04-08T01:55:22.187Z,7.93
2018-04-08T01:56:21.921Z,7.88
2018-04-08T01:57:22.163Z,7.98
2018-04-08T01:58:22.154Z,7.98
2018-04-08T01:59:22.154Z,7.95
2018-04-08T02:00:22.128Z,7.96
2018-04-08T02:01:22.121Z,7.96
2018-04-08T02:02:22.106Z,7.91
2018-04-08T02:03:22.094Z,7.92
2018-04-08T02:04:22.081Z,7.86
2018-04-08T02:05:21.816Z,7.91
2018-04-08T02:06:22.060Z,7.85
2018-04-08T02:07:22.049Z,7.91
2018-04-08T02:08:22.035Z,7.83
2018-04-08T02:09:21.767Z,7.83
2018-04-08T02:10:21.753Z,7.82
2018-04-08T02:11:21.741Z,7.78
2018-04-08T02:12:21.727Z,7.85
2018-04-08T02:13:21.976Z,7.78
2018-04-08T02:14:21.705Z,7.83
2018-04-08T02:15:21.435Z,7.77
2018-04-08T02:16:21.691Z,7.77
2018-04-08T02:17:21.926Z,7.74
2018-04-08T02:18:21.938Z,7.82
2018-04-08T02:19:21.645Z,7.83
2018-04-08T02:20:21.634Z,7.77
2018-04-08T02:21:21.883Z,7.75
2018-04-08T02:22:21.351Z,7.78
2018-04-08T02:23:21.599Z,7.75
2018-04-08T02:24:21.586Z,7.77
2018-04-08T02:25:21.578Z,7.8
2018-04-08T02:26:21.822Z,7.75
2018-04-08T02:27:21.557Z,7.82
2018-04-08T02:28:21.280Z,7.75
2018-04-08T02:29:21.270Z,7.74
2018-04-08T02:30:21.520Z,7.71
2018-04-08T02:31:21.505Z,7.73
2018-04-08T02:32:21.488Z,7.58
2018-04-08T02:33:21.481Z,7.59
2018-04-08T02:34:21.476Z,7.58
2018-04-08T02:35:21.458Z,7.61
2018-04-08T02:36:21.443Z,7.59
2018-04-08T02:37:21.696Z,7.55
2018-04-08T02:38:21.163Z,7.58
2018-04-08T02:39:21.666Z,7.59
2018-04-08T02:40:21.664Z,7.64
2018-04-08T02:41:21.647Z,7.63
2018-04-08T02:42:21.377Z,7.56
2018-04-08T02:43:21.618Z,7.63
2018-04-08T02:44:21.351Z,7.52
2018-04-08T02:45:21.346Z,7.58
2018-04-08T02:46:21.587Z,7.51
2018-04-08T02:47:21.312Z,7.51
2018-04-08T02:48:21.296Z,7.49
2018-04-08T02:49:21.291Z,7.52
2018-04-08T02:50:21.274Z,7.54
2018-04-08T02:51:21.311Z,7.54
2018-04-08T02:52:21.251Z,7.54
2018-04-08T02:53:21.506Z,7.51
2018-04-08T02:54:20.967Z,7.52
2018-04-08T02:55:21.225Z,7.56
2018-04-08T02:56:21.210Z,7.56
2018-04-08T02:57:21.206Z,7.63
2018-04-08T02:58:21.186Z,7.59
2018-04-08T02:59:21.431Z,7.61
2018-04-08T03:00:21.156Z,7.58
2018-04-08T03:01:21.143Z,7.52
2018-04-08T03:02:21.385Z,7.54
2018-04-08T03:03:21.379Z,7.59
2018-04-08T03:04:21.370Z,7.47
2018-04-08T03:05:21.357Z,7.56
2018-04-08T03:06:21.084Z,7.54
2018-04-08T03:07:21.329Z,7.39
2018-04-08T03:08:21.325Z,7.51
2018-04-08T03:09:21.318Z,7.51
2018-04-08T03:10:21.043Z,7.49
2018-04-08T03:11:21.029Z,7.48
2018-04-08T03:12:21.013Z,7.45
2018-04-08T03:13:20.996Z,7.55
2018-04-08T03:14:21.244Z,7.48
2018-04-08T03:15:20.974Z,7.52
2018-04-08T03:16:21.229Z,7.52
2018-04-08T03:17:20.689Z,7.52
2018-04-08T03:18:21.199Z,7.58
2018-04-08T03:19:20.927Z,7.49
2018-04-08T03:20:20.911Z,7.52
2018-04-08T03:21:21.157Z,7.49
2018-04-08T03:22:21.145Z,7.49
2018-04-08T03:23:21.135Z,7.54
2018-04-08T03:24:20.875Z,7.48
2018-04-08T03:25:21.111Z,7.48
2018-04-08T03:26:20.839Z,7.51
2018-04-08T03:27:20.830Z,7.52
2018-04-08T03:28:21.070Z,7.49
2018-04-08T03:29:20.802Z,7.54
2018-04-08T03:30:20.795Z,7.52
2018-04-08T03:31:21.049Z,7.49
2018-04-08T03:32:20.766Z,7.55
2018-04-08T03:33:21.012Z,7.61
2018-04-08T03:34:20.742Z,7.59
2018-04-08T03:35:20.996Z,7.49
2018-04-08T03:36:20.974Z,7.52
2018-04-08T03:37:20.449Z,7.56
2018-04-08T03:38:20.698Z,7.56
2018-04-08T03:39:20.688Z,7.48
2018-04-08T03:40:20.926Z,7.51
2018-04-08T03:41:20.914Z,7.54
2018-04-08T03:42:20.645Z,7.51
2018-04-08T03:43:20.900Z,7.48
2018-04-08T03:44:20.627Z,7.56
2018-04-08T03:45:20.606Z,7.47
2018-04-08T03:46:20.596Z,7.48
2018-04-08T03:47:20.843Z,7.45
2018-04-08T03:48:20.574Z,7.51
2018-04-08T03:49:20.559Z,7.49
2018-04-08T03:50:20.809Z,7.51
2018-04-08T03:51:20.794Z,7.49
2018-04-08T03:52:20.778Z,7.39
2018-04-08T03:53:20.778Z,7.55
2018-04-08T03:54:20.500Z,7.56
2018-04-08T03:55:20.491Z,7.4
2018-04-08T03:56:20.471Z,7.48
2018-04-08T03:57:20.458Z,7.49
2018-04-08T03:58:20.707Z,7.48
2018-04-08T03:59:20.436Z,7.45
2018-04-08T04:00:20.167Z,7.51
2018-04-08T04:01:20.675Z,7.39
2018-04-08T04:02:20.402Z,7.4
2018-04-08T04:03:20.648Z,7.51
2018-04-08T04:04:20.633Z,7.47
2018-04-08T04:05:20.622Z,7.51
2018-04-08T04:06:20.350Z,7.36
2018-04-08T04:07:20.600Z,7.45
2018-04-08T04:08:20.325Z,7.4
2018-04-08T04:09:20.575Z,7.44
2018-04-08T04:10:20.606Z,7.47
2018-04-08T04:11:20.545Z,7.4
2018-04-08T04:12:20.543Z,7.55
2018-04-08T04:13:20.263Z,7.34
2018-04-08T04:14:19.993Z,7.39
2018-04-08T04:15:20.240Z,7.44
2018-04-08T04:16:20.229Z,7.4
2018-04-08T04:17:20.268Z,7.41
2018-04-08T04:18:20.470Z,7.4
2018-04-08T04:19:20.468Z,7.41
2018-04-08T04:20:20.184Z,7.37
2018-04-08T04:21:20.429Z,7.39
2018-04-08T04:22:20.154Z,7.33
2018-04-08T04:23:20.402Z,7.29
2018-04-08T04:24:20.385Z,7.27
2018-04-08T04:25:20.117Z,7.34
2018-04-08T04:26:20.369Z,7.33
2018-04-08T04:27:20.094Z,7.4
2018-04-08T04:28:20.084Z,7.33
2018-04-08T04:29:20.075Z,7.3
2018-04-08T04:30:20.314Z,7.36
2018-04-08T04:31:19.786Z,7.27
2018-04-08T04:32:20.032Z,7.23
2018-04-08T04:33:20.020Z,7.23
2018-04-08T04:34:20.264Z,7.18
2018-04-08T04:35:19.996Z,7.22
2018-04-08T04:36:19.979Z,7.21
2018-04-08T04:37:19.972Z,7.22
2018-04-08T04:38:19.959Z,7.26
2018-04-08T04:39:19.689Z,7.23
2018-04-08T04:40:19.928Z,7.16
2018-04-08T04:41:19.671Z,7.19
2018-04-08T04:42:20.160Z,7.16
2018-04-08T04:43:19.893Z,7.12
2018-04-08T04:44:19.882Z,7.18
2018-04-08T04:45:19.869Z,7.13
2018-04-08T04:46:20.112Z,7.12
2018-04-08T04:47:19.852Z,7.15
2018-04-08T04:48:19.833Z,7.19
2018-04-08T04:49:20.078Z,7.12
2018-04-08T04:50:19.807Z,7.15
2018-04-08T04:51:20.188Z,7.22
2018-04-08T04:52:20.041Z,7.13
2018-04-08T04:53:19.771Z,7.12
2018-04-08T04:54:19.756Z,7.12
2018-04-08T04:55:20.004Z,7.03
2018-04-08T04:56:19.737Z,7.15
2018-04-08T04:57:19.721Z,7.13
2018-04-08T04:58:19.975Z,7.13
2018-04-08T04:59:19.959Z,7.16
2018-04-08T05:00:19.684Z,7.12
2018-04-08T05:01:19.932Z,7.15
2018-04-08T05:02:19.916Z,7.18
2018-04-08T05:03:19.648Z,7.08
2018-04-08T05:04:19.634Z,7.21
2018-04-08T05:05:19.362Z,7.15
2018-04-08T05:06:19.869Z,7.11
2018-04-08T05:07:19.338Z,7.18
2018-04-08T05:08:19.581Z,7.18
2018-04-08T05:09:19.570Z,7.18
2018-04-08T05:10:19.303Z,7.22
2018-04-08T05:11:19.549Z,7.23
2018-04-08T05:12:19.536Z,7.22
2018-04-08T05:13:19.523Z,7.19
2018-04-08T05:14:19.769Z,7.21
2018-04-08T05:15:19.238Z,7.23
2018-04-08T05:16:19.744Z,7.21
2018-04-08T05:17:19.732Z,7.23
2018-04-08T05:18:19.724Z,7.23
2018-04-08T05:19:19.458Z,7.33
2018-04-08T05:20:19.434Z,7.37
2018-04-08T05:21:19.695Z,7.36
2018-04-08T05:22:19.415Z,7.36
2018-04-08T05:23:19.398Z,7.29
2018-04-08T05:24:19.642Z,7.36
2018-04-08T05:25:19.639Z,7.33
2018-04-08T05:26:19.366Z,7.39
2018-04-08T05:27:19.091Z,7.34
2018-04-08T05:28:19.595Z,7.4
2018-04-08T05:29:19.066Z,7.4
2018-04-08T05:30:19.572Z,7.39
2018-04-08T05:31:19.562Z,7.39
2018-04-08T05:32:19.545Z,7.47
2018-04-08T05:33:19.276Z,7.44
2018-04-08T05:34:19.521Z,7.51
2018-04-08T05:35:19.249Z,7.51
2018-04-08T05:36:18.980Z,7.48
2018-04-08T05:37:19.225Z,7.55
2018-04-08T05:38:19.468Z,7.49
2018-04-08T05:39:19.464Z,7.48
2018-04-08T05:40:19.445Z,7.56
2018-04-08T05:41:19.178Z,7.54
2018-04-08T05:42:19.169Z,7.52
2018-04-08T05:43:19.407Z,7.49
2018-04-08T05:44:19.142Z,7.59
2018-04-08T05:45:19.129Z,7.58
2018-04-08T05:46:19.114Z,7.58
2018-04-08T05:47:19.107Z,7.59
2018-04-08T05:48:19.350Z,7.63
2018-04-08T05:49:19.334Z,7.73
2018-04-08T05:50:19.066Z,7.75
2018-04-08T05:51:19.054Z,7.75
2018-04-08T05:52:19.044Z,7.77
2018-04-08T05:53:19.039Z,7.82
2018-04-08T05:54:19.015Z,7.75
2018-04-08T05:55:19.267Z,7.83
2018-04-08T05:56:19.254Z,7.78
2018-04-08T05:57:19.244Z,7.92
2018-04-08T05:58:19.229Z,7.88
2018-04-08T05:59:19.213Z,7.93
2018-04-08T06:00:19.208Z,7.98
2018-04-08T06:01:18.931Z,8.03
2018-04-08T06:02:18.923Z,8.04
2018-04-08T06:03:18.913Z,8.06
2018-04-08T06:04:19.155Z,8.13
2018-04-08T06:05:18.884Z,8.14
2018-04-08T06:06:18.873Z,8.19
2018-04-08T06:07:18.861Z,8.24
2018-04-08T06:08:18.853Z,8.17
2018-04-08T06:09:18.846Z,8.31
2018-04-08T06:10:19.083Z,8.22
2018-04-08T06:11:18.814Z,8.26
2018-04-08T06:12:19.062Z,8.21
2018-04-08T06:13:18.791Z,8.24
2018-04-08T06:14:18.780Z,8.25
2018-04-08T06:15:18.766Z,8.34
2018-04-08T06:16:18.761Z,8.42
2018-04-08T06:17:18.747Z,8.32
2018-04-08T06:18:18.475Z,8.44
2018-04-08T06:19:18.998Z,8.46
2018-04-08T06:20:18.968Z,8.5
2018-04-08T06:21:18.964Z,8.65
2018-04-08T06:22:18.686Z,8.67
2018-04-08T06:23:18.675Z,8.62
2018-04-08T06:24:18.924Z,8.67
2018-04-08T06:25:18.651Z,8.65
2018-04-08T06:26:18.638Z,8.68
2018-04-08T06:27:18.627Z,8.69
2018-04-08T06:28:18.619Z,8.68
2018-04-08T06:29:18.860Z,8.77
2018-04-08T06:30:18.972Z,8.8
2018-04-08T06:31:18.583Z,8.89
2018-04-08T06:32:18.574Z,8.82
2018-04-08T06:33:18.561Z,8.98
2018-04-08T06:34:18.550Z,8.9
2018-04-08T06:35:18.536Z,9.05
2018-04-08T06:36:18.785Z,9.32
2018-04-08T06:37:18.775Z,9.5
2018-04-08T06:38:18.502Z,9.63
2018-04-08T06:39:18.236Z,9.77
2018-04-08T06:40:18.740Z,9.95
2018-04-08T06:41:18.472Z,10.13
2018-04-08T06:42:18.718Z,10.47
2018-04-08T06:43:18.452Z,10.9
2018-04-08T06:44:18.696Z,11.31
2018-04-08T06:45:18.427Z,11.68
2018-04-08T06:46:18.676Z,12.25
2018-04-08T06:47:18.671Z,12.65
2018-04-08T06:48:18.396Z,12.99
2018-04-08T06:49:18.643Z,13.5
2018-04-08T06:50:18.385Z,13.84
2018-04-08T06:51:18.635Z,14.31
2018-04-08T06:52:18.822Z,14.66
2018-04-08T06:53:18.357Z,15
2018-04-08T06:54:18.084Z,15.44
2018-04-08T06:55:18.592Z,15.86
2018-04-08T06:56:18.580Z,16.33
2018-04-08T06:57:18.316Z,16.63
2018-04-08T06:58:18.601Z,16.95
2018-04-08T06:59:18.045Z,17.25
2018-04-08T07:00:18.551Z,17.63
2018-04-08T07:01:18.029Z,17.83
2018-04-08T07:02:18.021Z,18.06
2018-04-08T07:03:18.272Z,18.39
2018-04-08T07:04:18.521Z,18.68
2018-04-08T07:05:18.315Z,19
2018-04-08T07:06:18.510Z,19.4
2018-04-08T07:07:18.250Z,19.8
2018-04-08T07:08:18.504Z,19.98
2018-04-08T07:09:18.246Z,20.12
2018-04-08T07:10:18.490Z,20.34
2018-04-08T07:11:18.489Z,20.27
2018-04-08T07:12:18.478Z,20.6
2018-04-08T07:13:18.477Z,20.82
2018-04-08T07:14:18.211Z,21.16
2018-04-08T07:15:18.467Z,21.27
2018-04-08T07:16:18.203Z,21.45
2018-04-08T07:17:18.200Z,21.51
2018-04-08T07:18:18.228Z,21.7
2018-04-08T07:19:18.196Z,21.78
2018-04-08T07:20:18.186Z,21.93
2018-04-08T07:21:18.439Z,21.86
2018-04-08T07:22:17.918Z,21.76
2018-04-08T07:23:18.426Z,21.46
2018-04-08T07:24:18.425Z,21.13
2018-04-08T07:25:18.172Z,20.66
2018-04-08T07:26:17.898Z,20.11
2018-04-08T07:27:18.412Z,19.64
2018-04-08T07:28:18.144Z,19.06
2018-04-08T07:29:17.887Z,18.66
2018-04-08T07:30:18.140Z,18.39
2018-04-08T07:31:18.392Z,18.14
2018-04-08T07:32:18.385Z,17.84
2018-04-08T07:33:17.862Z,17.43
2018-04-08T07:34:18.118Z,17.13
2018-04-08T07:35:18.116Z,16.88
2018-04-08T07:36:17.850Z,16.67
2018-04-08T07:37:18.103Z,16.34
2018-04-08T07:38:18.353Z,16.3
2018-04-08T07:39:18.349Z,16.06
2018-04-08T07:40:18.361Z,15.74
2018-04-08T07:41:17.823Z,15.71
2018-04-08T07:42:18.075Z,15.52
2018-04-08T07:43:17.816Z,15.49
2018-04-08T07:44:18.132Z,15.35
2018-04-08T07:45:18.065Z,15.25
2018-04-08T07:46:18.313Z,15.05
2018-04-08T07:47:18.306Z,15.01
2018-04-08T07:48:18.304Z,15
2018-04-08T07:49:18.298Z,14.93
2018-04-08T07:50:18.301Z,14.93
2018-04-08T07:51:18.033Z,14.85
2018-04-08T07:52:18.021Z,14.83
2018-04-08T07:53:18.017Z,14.8
2018-04-08T07:54:18.013Z,14.71
2018-04-08T07:55:18.300Z,14.63
2018-04-08T07:56:18.001Z,14.69
2018-04-08T07:57:17.737Z,14.59
2018-04-08T07:58:18.246Z,14.51
2018-04-08T07:59:18.302Z,14.59
2018-04-08T08:00:17.719Z,14.59
2018-04-08T08:01:17.714Z,14.6
2018-04-08T08:02:17.712Z,14.61
2018-04-08T08:03:17.962Z,14.52
2018-04-08T08:04:17.697Z,14.48
2018-04-08T08:05:18.258Z,14.48
2018-04-08T08:06:18.202Z,14.3
2018-04-08T08:07:17.939Z,14.27
2018-04-08T08:08:17.933Z,14.26
2018-04-08T08:09:17.674Z,14.2
2018-04-08T08:10:18.175Z,14.19
2018-04-08T08:11:18.277Z,14.11
2018-04-08T08:12:18.164Z,14.21
2018-04-08T08:13:17.904Z,14.3
2018-04-08T08:14:18.156Z,14.28
2018-04-08T08:15:17.890Z,14.45
2018-04-08T08:16:17.628Z,14.45
2018-04-08T08:17:49.977Z,14.39
2018-04-08T08:18:18.262Z,14.31
2018-04-08T08:19:17.606Z,14.41
2018-04-08T08:20:17.859Z,14.36
2018-04-08T08:21:18.110Z,14.3
2018-04-08T08:22:18.103Z,14.27
2018-04-08T08:23:18.099Z,14.09
2018-04-08T08:24:17.832Z,14.12
2018-04-08T08:25:18.098Z,14.08
2018-04-08T08:26:17.564Z,14.08
2018-04-08T08:27:18.072Z,14.05
2018-04-08T08:28:17.809Z,14.13
2018-04-08T08:29:17.546Z,14.09
2018-04-08T08:30:17.796Z,13.97
2018-04-08T08:31:17.789Z,13.97
2018-04-08T08:32:18.046Z,13.97
2018-04-08T08:33:17.786Z,13.95
2018-04-08T08:34:17.514Z,14.09
2018-04-08T08:35:17.763Z,14.06
2018-04-08T08:36:18.020Z,14.06
2018-04-08T08:37:18.007Z,14.08
2018-04-08T08:38:17.834Z,14.2
2018-04-08T08:39:17.999Z,14.08
2018-04-08T08:40:17.989Z,13.99
2018-04-08T08:41:17.988Z,14.05
2018-04-08T08:42:17.717Z,14.15
2018-04-08T08:43:17.713Z,14.05
2018-04-08T08:44:17.966Z,14.26
2018-04-08T08:45:17.700Z,14.34
2018-04-08T08:46:17.692Z,14.45
2018-04-08T08:47:17.687Z,14.46
2018-04-08T08:48:17.425Z,14.6
2018-04-08T08:49:17.736Z,14.74
2018-04-08T08:50:17.407Z,14.89
2018-04-08T08:51:17.920Z,14.97
2018-04-08T08:52:17.658Z,15.02
2018-04-08T08:53:17.652Z,14.98
2018-04-08T08:54:17.639Z,15.01
2018-04-08T08:55:17.636Z,14.87
2018-04-08T08:56:17.888Z,14.98
2018-04-08T08:57:17.641Z,14.9
2018-04-08T08:58:17.878Z,14.95
2018-04-08T08:59:17.872Z,14.89
2018-04-08T09:00:17.906Z,14.89
2018-04-08T09:01:17.341Z,14.8
2018-04-08T09:02:17.591Z,14.79
2018-04-08T09:03:17.583Z,14.66
2018-04-08T09:04:17.841Z,14.66
2018-04-08T09:05:17.316Z,14.61
2018-04-08T09:06:17.568Z,14.52
2018-04-08T09:07:17.563Z,14.53
2018-04-08T09:08:17.562Z,14.64
2018-04-08T09:09:17.546Z,14.66
2018-04-08T09:10:17.556Z,14.75
2018-04-08T09:11:17.537Z,14.75
2018-04-08T09:12:17.787Z,14.83
2018-04-08T09:13:17.784Z,14.8
2018-04-08T09:14:17.259Z,15.01
2018-04-08T09:15:17.513Z,14.98
2018-04-08T09:16:17.763Z,15.04
2018-04-08T09:17:17.754Z,15
2018-04-08T09:18:17.230Z,15.13
2018-04-08T09:19:17.745Z,15.25
2018-04-08T09:20:17.744Z,15.27
2018-04-08T09:21:17.478Z,15.27
2018-04-08T09:22:17.464Z,15.35
2018-04-08T09:23:17.721Z,15.33
2018-04-08T09:25:17.708Z,15.4
2018-04-08T09:26:17.442Z,15.45
2018-04-08T09:27:17.438Z,15.51
2018-04-08T09:28:17.871Z,15.62
2018-04-08T09:29:17.423Z,15.59
2018-04-08T09:30:17.418Z,15.67
2018-04-08T09:31:17.676Z,15.7
2018-04-08T09:32:17.669Z,15.68
2018-04-08T09:33:17.401Z,15.74
2018-04-08T09:34:17.393Z,15.75
2018-04-08T09:35:17.392Z,15.74
2018-04-08T09:36:17.180Z,15.71
2018-04-08T09:37:17.382Z,15.65
2018-04-08T09:38:17.634Z,15.75
2018-04-08T09:39:17.367Z,15.8
2018-04-08T09:40:17.623Z,15.89
2018-04-08T09:41:17.616Z,15.77
2018-04-08T09:42:17.351Z,15.74
2018-04-08T09:43:17.605Z,15.75
2018-04-08T09:44:17.339Z,15.7
2018-04-08T09:45:17.596Z,15.73
2018-04-08T09:46:17.589Z,15.75
2018-04-08T09:47:17.581Z,15.7
2018-04-08T09:48:17.575Z,15.73
2018-04-08T09:49:17.057Z,15.7
2018-04-08T09:50:17.311Z,15.73
2018-04-08T09:51:17.300Z,15.74
2018-04-08T09:52:17.294Z,15.73
2018-04-08T09:53:17.596Z,15.74
2018-04-08T09:54:17.027Z,15.75
2018-04-08T09:55:17.283Z,15.75
2018-04-08T09:56:17.273Z,15.74
2018-04-08T09:57:17.011Z,15.71
2018-04-08T09:58:17.517Z,15.67
2018-04-08T09:59:17.002Z,15.6
2018-04-08T10:00:17.509Z,15.6
2018-04-08T10:01:17.505Z,15.65
2018-04-08T10:02:17.500Z,15.65
2018-04-08T10:03:17.493Z,15.67
2018-04-08T10:04:17.229Z,15.74
2018-04-08T10:05:17.480Z,15.74
2018-04-08T10:06:17.220Z,15.75
2018-04-08T10:07:17.470Z,15.75
2018-04-08T10:08:17.204Z,15.89
2018-04-08T10:09:17.460Z,15.89
2018-04-08T10:10:17.200Z,16.06
2018-04-08T10:11:17.452Z,16.07
2018-04-08T10:12:17.440Z,16.06
2018-04-08T10:13:17.434Z,15.96
2018-04-08T10:14:17.175Z,15.93
2018-04-08T10:15:16.909Z,16.06
2018-04-08T10:16:17.163Z,16.1
2018-04-08T10:17:17.413Z,16.07
2018-04-08T10:18:17.152Z,16.07
2018-04-08T10:19:17.147Z,15.93
2018-04-08T10:20:16.880Z,15.93
2018-04-08T10:21:17.139Z,16.02
2018-04-08T10:22:17.385Z,15.95
2018-04-08T10:23:17.387Z,15.89
2018-04-08T10:24:17.382Z,15.74
2018-04-08T10:25:17.113Z,15.83
2018-04-08T10:26:17.376Z,15.86
2018-04-08T10:27:17.354Z,15.95
2018-04-08T10:28:17.351Z,15.99
2018-04-08T10:29:17.604Z,15.96
2018-04-08T10:30:17.517Z,16.02
2018-04-08T10:31:17.089Z,16.11
2018-04-08T10:32:16.819Z,16.21
2018-04-08T10:33:17.069Z,16.22
2018-04-08T10:34:17.062Z,16.13
2018-04-08T10:35:17.330Z,16.16
2018-04-08T10:36:17.315Z,16.25
2018-04-08T10:37:17.307Z,16.16
2018-04-08T10:38:17.052Z,16.13
2018-04-08T10:39:17.040Z,16.11
2018-04-08T10:40:17.297Z,16.3
2018-04-08T10:41:17.025Z,16.29
2018-04-08T10:42:17.021Z,16.33
2018-04-08T10:43:17.278Z,16.34
2018-04-08T10:44:17.015Z,16.51
2018-04-08T10:45:16.746Z,16.45
2018-04-08T10:46:17.257Z,16.52
2018-04-08T10:47:17.256Z,16.47
2018-04-08T10:48:16.732Z,16.51
2018-04-08T10:49:16.982Z,16.45
2018-04-08T10:50:17.237Z,16.54
2018-04-08T10:51:17.233Z,16.51
2018-04-08T10:52:16.967Z,16.21
2018-04-08T10:53:16.964Z,16.27
2018-04-08T10:54:16.962Z,16.34
2018-04-08T10:55:17.208Z,16.3
2018-04-08T10:56:16.952Z,16.33
2018-04-08T10:57:17.200Z,16.29
2018-04-08T10:58:17.309Z,16.27
2018-04-08T10:59:17.189Z,16.27
2018-04-08T11:00:17.186Z,16.29
2018-04-08T11:01:17.191Z,16.29
2018-04-08T11:02:16.920Z,16.3
2018-04-08T11:03:17.173Z,16.32
2018-04-08T11:04:16.910Z,16.36
2018-04-08T11:05:16.903Z,16.39
2018-04-08T11:06:17.159Z,16.4
2018-04-08T11:07:16.892Z,16.44
2018-04-08T11:08:17.148Z,16.47
2018-04-08T11:09:16.949Z,16.54
2018-04-08T11:10:17.333Z,16.52
2018-04-08T11:11:16.875Z,16.48
2018-04-08T11:12:16.610Z,16.62
2018-04-08T11:13:17.121Z,16.55
2018-04-08T11:14:17.121Z,16.51
2018-04-08T11:15:16.595Z,16.59
2018-04-08T11:16:16.590Z,16.49
2018-04-08T11:17:16.588Z,16.59
2018-04-08T11:18:16.842Z,16.65
2018-04-08T11:19:17.095Z,16.55
2018-04-08T11:20:16.833Z,16.67
2018-04-08T11:21:16.831Z,16.69
2018-04-08T11:22:17.079Z,16.66
2018-04-08T11:23:17.075Z,16.67
2018-04-08T11:24:17.072Z,16.69
2018-04-08T11:25:16.804Z,16.66
2018-04-08T11:26:17.065Z,16.62
2018-04-08T11:27:16.798Z,16.63
2018-04-08T11:28:16.793Z,16.66
2018-04-08T11:29:16.786Z,16.7
2018-04-08T11:30:16.780Z,16.7
2018-04-08T11:31:17.039Z,16.62
2018-04-08T11:32:17.039Z,16.52
2018-04-08T11:33:16.508Z,16.4
2018-04-08T11:34:16.763Z,16.33
2018-04-08T11:35:17.020Z,16.13
2018-04-08T11:36:17.015Z,16.21
2018-04-08T11:37:17.003Z,16.22
2018-04-08T11:38:16.749Z,16.21
2018-04-08T11:39:16.993Z,16.17
2018-04-08T11:40:16.732Z,16.16
2018-04-08T11:41:16.788Z,16.25
2018-04-08T11:42:16.988Z,16.27
2018-04-08T11:43:16.719Z,16.26
2018-04-08T11:44:16.468Z,16.33
2018-04-08T11:45:16.967Z,16.42
2018-04-08T11:46:16.963Z,16.36
2018-04-08T11:47:17.021Z,16.34
2018-04-08T11:48:16.527Z,16.22
2018-04-08T11:49:16.944Z,16.34
2018-04-08T11:50:16.683Z,16.33
2018-04-08T11:51:16.423Z,16.32
2018-04-08T11:52:16.675Z,16.39
2018-04-08T11:53:16.934Z,16.37
2018-04-08T11:54:16.407Z,16.42
2018-04-08T11:55:16.662Z,16.4
2018-04-08T11:56:16.917Z,16.39
2018-04-08T11:57:16.912Z,16.34
2018-04-08T11:58:16.387Z,16.34
2018-04-08T11:59:16.898Z,16.33
2018-04-08T12:00:16.958Z,16.39
2018-04-08T12:01:16.632Z,16.39
2018-04-08T12:02:16.625Z,16.33
2018-04-08T12:03:16.365Z,16.3
2018-04-08T12:04:16.877Z,16.33
2018-04-08T12:05:16.614Z,16.26
2018-04-08T12:06:16.606Z,16.32
2018-04-08T12:07:16.603Z,16.13
2018-04-08T12:08:16.598Z,16
2018-04-08T12:09:16.880Z,15.88
2018-04-08T12:10:16.588Z,15.71
2018-04-08T12:11:16.579Z,15.6
2018-04-08T12:12:16.579Z,15.63
2018-04-08T12:13:16.831Z,15.58
2018-04-08T12:14:16.572Z,15.62
2018-04-08T12:15:16.821Z,15.7
2018-04-08T12:16:16.828Z,15.62
2018-04-08T12:17:16.552Z,15.71
2018-04-08T12:18:16.551Z,15.65
2018-04-08T12:19:16.540Z,15.75
2018-04-08T12:20:16.800Z,15.71
2018-04-08T12:21:16.790Z,15.89
2018-04-08T12:22:16.782Z,15.89
2018-04-08T12:23:16.784Z,15.92
2018-04-08T12:24:16.263Z,15.99
2018-04-08T12:25:16.518Z,15.96
2018-04-08T12:26:16.508Z,15.93
2018-04-08T12:27:16.760Z,15.98
2018-04-08T12:28:16.759Z,15.89
2018-04-08T12:29:16.232Z,15.75
2018-04-08T12:30:16.745Z,15.75
2018-04-08T12:31:16.511Z,15.73
2018-04-08T12:32:16.737Z,15.84
2018-04-08T12:33:16.474Z,15.84
2018-04-08T12:34:16.467Z,15.89
2018-04-08T12:35:16.721Z,15.86
2018-04-08T12:36:16.726Z,15.86
2018-04-08T12:37:16.712Z,15.91
2018-04-08T12:38:16.704Z,16.04
2018-04-08T12:39:16.183Z,15.99
2018-04-08T12:40:16.436Z,15.98
2018-04-08T12:41:16.429Z,15.95
2018-04-08T12:42:16.696Z,15.92
2018-04-08T12:43:16.421Z,15.83
2018-04-08T12:44:16.680Z,15.7
2018-04-08T12:45:16.411Z,15.75
2018-04-08T12:46:16.408Z,15.77
2018-04-08T12:47:16.662Z,15.75
2018-04-08T12:48:16.144Z,15.62
2018-04-08T12:49:16.649Z,15.7
2018-04-08T12:50:16.647Z,15.65
2018-04-08T12:51:16.641Z,15.58
2018-04-08T12:52:16.653Z,15.47
2018-04-08T12:53:16.656Z,15.51
2018-04-08T12:54:16.631Z,15.43
2018-04-08T12:55:16.618Z,15.31
2018-04-08T12:56:16.104Z,15.38
2018-04-08T12:57:16.618Z,15.37
2018-04-08T12:58:16.616Z,15.41
2018-04-08T12:59:16.340Z,15.43
2018-04-08T13:00:16.341Z,15.53
2018-04-08T13:01:16.330Z,15.68
2018-04-08T13:02:16.580Z,15.58
2018-04-08T13:03:16.064Z,15.71
2018-04-08T13:04:16.314Z,15.74
2018-04-08T13:05:16.052Z,15.65
2018-04-08T13:06:16.563Z,15.6
2018-04-08T13:07:16.299Z,15.63
2018-04-08T13:08:16.550Z,15.62
2018-04-08T13:09:16.031Z,15.59